Station Historical Data
Daily Summary for April 17, 2017 Units:  Both    English   Metric
« Previous Day
Next Day »
Daily Weekly Monthly Yearly Custom
  High: Low: Average:
Temperature: 57.9 °F /  14.4 °C 39.9 °F /  4.4 °C 50.4 °F /  10.2 °C
Dew Point: 45.3 °F /  7.4 °C 32.0 °F /  0 °C 40.2 °F /  4.6 °C
Humidity: 89% 52% 69%
Wind Speed: 15.0mph /  24.1km/h - 4.1mph /  6.6km/h
Wind Gust: 19.0mph /  30.6km/h - -
Wind- - SW
Pressure: 30.29 in /  1025.6 hPa 29.91 in /  1012.8 hPa -
Precipitation: 0.00 in /  0 mm    
Historical Graphs
 
 
Tabular Data for April 17, 2017
Time Temperature Dew Point Pressure Wind Wind Speed Wind Gust Humidity Rainfall Rate (Hourly)
00:04 48.2 °F /  9 °C 44.5 °F /  6.9 °C 29.92in /  1013.1hPa SW 3.0mph /  4.8km/h 7.0mph /  11.3km/h 87% 0.00in /  0mm
00:09 48.1 °F /  8.9 °C 44.4 °F /  6.9 °C 29.92in /  1013.1hPa SSW 2.0mph /  3.2km/h 3.0mph /  4.8km/h 87% 0.00in /  0mm
00:14 47.8 °F /  8.8 °C 44.1 °F /  6.7 °C 29.91in /  1012.8hPa SSW 2.0mph /  3.2km/h 3.0mph /  4.8km/h 87% 0.00in /  0mm
00:19 47.7 °F /  8.7 °C 44.3 °F /  6.8 °C 29.92in /  1013.1hPa SSW 2.0mph /  3.2km/h 4.0mph /  6.4km/h 88% 0.00in /  0mm
00:24 47.7 °F /  8.7 °C 44.3 °F /  6.8 °C 29.92in /  1013.1hPa SSW 2.0mph /  3.2km/h 4.0mph /  6.4km/h 88% 0.00in /  0mm
00:29 47.7 °F /  8.7 °C 44.3 °F /  6.8 °C 29.93in /  1013.4hPa WSW 1.0mph /  1.6km/h 3.0mph /  4.8km/h 88% 0.00in /  0mm
00:34 47.8 °F /  8.8 °C 44.4 °F /  6.9 °C 29.92in /  1013.1hPa Calm   3.0mph /  4.8km/h 88% 0.00in /  0mm
00:39 47.8 °F /  8.8 °C 44.4 °F /  6.9 °C 29.93in /  1013.4hPa Calm   1.0mph /  1.6km/h 88% 0.00in /  0mm
00:44 48.0 °F /  8.9 °C 44.9 °F /  7.2 °C 29.93in /  1013.4hPa Calm   1.0mph /  1.6km/h 89% 0.00in /  0mm
00:49 48.1 °F /  8.9 °C 45.0 °F /  7.2 °C 29.93in /  1013.4hPa Calm     89% 0.00in /  0mm
00:54 48.1 °F /  8.9 °C 45.0 °F /  7.2 °C 29.93in /  1013.4hPa Calm   2.0mph /  3.2km/h 89% 0.00in /  0mm
00:59 48.1 °F /  8.9 °C 45.0 °F /  7.2 °C 29.94in /  1013.8hPa Calm   3.0mph /  4.8km/h 89% 0.00in /  0mm
01:04 48.2 °F /  9 °C 45.1 °F /  7.3 °C 29.94in /  1013.8hPa SW 2.0mph /  3.2km/h 4.0mph /  6.4km/h 89% 0.00in /  0mm
01:09 48.2 °F /  9 °C 45.1 °F /  7.3 °C 29.94in /  1013.8hPa SW 1.0mph /  1.6km/h 4.0mph /  6.4km/h 89% 0.00in /  0mm
01:14 48.3 °F /  9.1 °C 45.2 °F /  7.3 °C 29.94in /  1013.8hPa SW 1.0mph /  1.6km/h 3.0mph /  4.8km/h 89% 0.00in /  0mm
01:19 48.3 °F /  9.1 °C 45.2 °F /  7.3 °C 29.95in /  1014.1hPa SW 1.0mph /  1.6km/h 3.0mph /  4.8km/h 89% 0.00in /  0mm
01:24 48.3 °F /  9.1 °C 45.2 °F /  7.3 °C 29.95in /  1014.1hPa SW 1.0mph /  1.6km/h 3.0mph /  4.8km/h 89% 0.00in /  0mm
01:29 48.3 °F /  9.1 °C 45.2 °F /  7.3 °C 29.95in /  1014.1hPa Calm   3.0mph /  4.8km/h 89% 0.00in /  0mm
01:34 48.1 °F /  8.9 °C 45.0 °F /  7.2 °C 29.95in /  1014.1hPa Calm     89% 0.00in /  0mm
01:39 48.0 °F /  8.9 °C 44.9 °F /  7.2 °C 29.95in /  1014.1hPa Calm     89% 0.00in /  0mm
01:44 48.0 °F /  8.9 °C 44.9 °F /  7.2 °C 29.95in /  1014.1hPa Calm     89% 0.00in /  0mm
01:54 48.2 °F /  9 °C 45.1 °F /  7.3 °C 29.96in /  1014.4hPa SW 1.0mph /  1.6km/h 3.0mph /  4.8km/h 89% 0.00in /  0mm
01:59 48.1 °F /  8.9 °C 45.0 °F /  7.2 °C 29.96in /  1014.4hPa SW 1.0mph /  1.6km/h 3.0mph /  4.8km/h 89% 0.00in /  0mm
02:04 48.2 °F /  9 °C 45.1 °F /  7.3 °C 29.96in /  1014.4hPa Calm     89% 0.00in /  0mm
02:09 48.2 °F /  9 °C 45.1 °F /  7.3 °C 29.95in /  1014.1hPa Calm     89% 0.00in /  0mm
02:14 48.1 °F /  8.9 °C 45.0 °F /  7.2 °C 29.95in /  1014.1hPa Calm     89% 0.00in /  0mm
02:19 48.0 °F /  8.9 °C 44.9 °F /  7.2 °C 29.95in /  1014.1hPa Calm     89% 0.00in /  0mm
02:24 47.9 °F /  8.8 °C 44.8 °F /  7.1 °C 29.95in /  1014.1hPa Calm     89% 0.00in /  0mm
02:29 47.9 °F /  8.8 °C 44.8 °F /  7.1 °C 29.95in /  1014.1hPa Calm     89% 0.00in /  0mm
02:34 48.0 °F /  8.9 °C 44.9 °F /  7.2 °C 29.95in /  1014.1hPa Calm     89% 0.00in /  0mm
02:39 48.0 °F /  8.9 °C 44.9 °F /  7.2 °C 29.96in /  1014.4hPa Calm     89% 0.00in /  0mm
02:44 48.0 °F /  8.9 °C 44.9 °F /  7.2 °C 29.96in /  1014.4hPa Calm     89% 0.00in /  0mm
02:49 48.0 °F /  8.9 °C 44.9 °F /  7.2 °C 29.96in /  1014.4hPa Calm     89% 0.00in /  0mm
02:54 48.0 °F /  8.9 °C 44.9 °F /  7.2 °C 29.96in /  1014.4hPa Calm     89% 0.00in /  0mm
02:59 48.1 °F /  8.9 °C 45.0 °F /  7.2 °C 29.96in /  1014.4hPa Calm     89% 0.00in /  0mm
03:04 48.0 °F /  8.9 °C 44.9 °F /  7.2 °C 29.96in /  1014.4hPa Calm     89% 0.00in /  0mm
03:09 48.0 °F /  8.9 °C 44.9 °F /  7.2 °C 29.96in /  1014.4hPa Calm     89% 0.00in /  0mm
03:14 48.0 °F /  8.9 °C 44.9 °F /  7.2 °C 29.96in /  1014.4hPa Calm     89% 0.00in /  0mm
03:19 48.1 °F /  8.9 °C 45.0 °F /  7.2 °C 29.96in /  1014.4hPa Calm     89% 0.00in /  0mm
03:29 48.4 °F /  9.1 °C 45.3 °F /  7.4 °C 29.96in /  1014.4hPa Calm     89% 0.00in /  0mm
03:34 48.6 °F /  9.2 °C 45.2 °F /  7.3 °C 29.97in /  1014.8hPa Calm     88% 0.00in /  0mm
03:39 48.5 °F /  9.2 °C 45.1 °F /  7.3 °C 29.97in /  1014.8hPa Calm     88% 0.00in /  0mm
03:44 48.5 °F /  9.2 °C 45.1 °F /  7.3 °C 29.97in /  1014.8hPa Calm   3.0mph /  4.8km/h 88% 0.00in /  0mm
03:49 48.5 °F /  9.2 °C 44.8 °F /  7.1 °C 29.97in /  1014.8hPa SW 1.0mph /  1.6km/h 3.0mph /  4.8km/h 87% 0.00in /  0mm
03:54 48.4 °F /  9.1 °C 45.0 °F /  7.2 °C 29.97in /  1014.8hPa Calm   3.0mph /  4.8km/h 88% 0.00in /  0mm
03:59 48.4 °F /  9.1 °C 45.0 °F /  7.2 °C 29.98in /  1015.1hPa Calm     88% 0.00in /  0mm
04:04 48.4 °F /  9.1 °C 44.7 °F /  7.1 °C 29.98in /  1015.1hPa Calm     87% 0.00in /  0mm
04:09 48.4 °F /  9.1 °C 44.7 °F /  7.1 °C 29.98in /  1015.1hPa Calm     87% 0.00in /  0mm
04:14 48.3 °F /  9.1 °C 44.6 °F /  7 °C 29.98in /  1015.1hPa SW 1.0mph /  1.6km/h 5.0mph /  8km/h 87% 0.00in /  0mm
04:19 48.3 °F /  9.1 °C 44.3 °F /  6.8 °C 29.98in /  1015.1hPa Calm   3.0mph /  4.8km/h 86% 0.00in /  0mm
04:24 48.2 °F /  9 °C 44.2 °F /  6.8 °C 29.98in /  1015.1hPa Calm     86% 0.00in /  0mm
04:29 48.2 °F /  9 °C 43.9 °F /  6.6 °C 29.98in /  1015.1hPa Calm     85% 0.00in /  0mm
04:34 48.1 °F /  8.9 °C 43.8 °F /  6.6 °C 29.98in /  1015.1hPa Calm     85% 0.00in /  0mm
04:39 47.9 °F /  8.8 °C 43.3 °F /  6.3 °C 29.98in /  1015.1hPa Calm     84% 0.00in /  0mm
04:44 47.7 °F /  8.7 °C 43.4 °F /  6.3 °C 29.99in /  1015.5hPa Calm     85% 0.00in /  0mm
04:49 47.5 °F /  8.6 °C 43.2 °F /  6.2 °C 29.99in /  1015.5hPa Calm     85% 0.00in /  0mm
04:59 47.3 °F /  8.5 °C 42.7 °F /  5.9 °C 29.99in /  1015.5hPa Calm     84% 0.00in /  0mm
05:04 47.0 °F /  8.3 °C 42.1 °F /  5.6 °C 29.99in /  1015.5hPa Calm     83% 0.00in /  0mm
05:09 46.8 °F /  8.2 °C 41.9 °F /  5.5 °C 29.99in /  1015.5hPa Calm   3.0mph /  4.8km/h 83% 0.00in /  0mm
05:14 47.0 °F /  8.3 °C 41.5 °F /  5.3 °C 29.99in /  1015.5hPa WSW 1.0mph /  1.6km/h 3.0mph /  4.8km/h 81% 0.00in /  0mm
05:19 47.2 °F /  8.4 °C 41.3 °F /  5.2 °C 29.99in /  1015.5hPa Calm   3.0mph /  4.8km/h 80% 0.00in /  0mm
05:29 47.1 °F /  8.4 °C 40.9 °F /  4.9 °C 29.99in /  1015.5hPa Calm     79% 0.00in /  0mm
05:34 46.9 °F /  8.3 °C 40.4 °F /  4.7 °C 29.99in /  1015.5hPa Calm   5.0mph /  8km/h 78% 0.00in /  0mm
05:39 46.8 °F /  8.2 °C 40.3 °F /  4.6 °C 29.99in /  1015.5hPa WSW 1.0mph /  1.6km/h 5.0mph /  8km/h 78% 0.00in /  0mm
05:44 46.9 °F /  8.3 °C 40.1 °F /  4.5 °C 30.00in /  1015.8hPa WSW 1.0mph /  1.6km/h 2.0mph /  3.2km/h 77% 0.00in /  0mm
05:49 46.7 °F /  8.2 °C 39.9 °F /  4.4 °C 30.00in /  1015.8hPa Calm   3.0mph /  4.8km/h 77% 0.00in /  0mm
05:59 46.5 °F /  8.1 °C 39.3 °F /  4.1 °C 30.00in /  1015.8hPa Calm     76% 0.00in /  0mm
06:04 46.7 °F /  8.2 °C 39.2 °F /  4 °C 30.00in /  1015.8hPa WSW 1.0mph /  1.6km/h 4.0mph /  6.4km/h 75% 0.00in /  0mm
06:09 47.4 °F /  8.6 °C 38.5 °F /  3.6 °C 30.01in /  1016.1hPa West 2.0mph /  3.2km/h 6.0mph /  9.7km/h 71% 0.00in /  0mm
06:14 47.8 °F /  8.8 °C 38.1 °F /  3.4 °C 30.01in /  1016.1hPa West 3.0mph /  4.8km/h 6.0mph /  9.7km/h 69% 0.00in /  0mm
06:19 48.0 °F /  8.9 °C 38.3 °F /  3.5 °C 30.01in /  1016.1hPa West 2.0mph /  3.2km/h 5.0mph /  8km/h 69% 0.00in /  0mm
06:24 47.8 °F /  8.8 °C 38.1 °F /  3.4 °C 30.01in /  1016.1hPa WSW 4.0mph /  6.4km/h 5.0mph /  8km/h 69% 0.00in /  0mm
06:29 47.6 °F /  8.7 °C 38.3 °F /  3.5 °C 30.01in /  1016.1hPa WSW 3.0mph /  4.8km/h 6.0mph /  9.7km/h 70% 0.00in /  0mm
06:34 47.3 °F /  8.5 °C 38.4 °F /  3.6 °C 30.01in /  1016.1hPa WSW 3.0mph /  4.8km/h 6.0mph /  9.7km/h 71% 0.00in /  0mm
06:39 47.3 °F /  8.5 °C 38.7 °F /  3.7 °C 30.02in /  1016.5hPa WSW 3.0mph /  4.8km/h 6.0mph /  9.7km/h 72% 0.00in /  0mm
06:44 47.1 °F /  8.4 °C 38.5 °F /  3.6 °C 30.02in /  1016.5hPa WSW 3.0mph /  4.8km/h 6.0mph /  9.7km/h 72% 0.00in /  0mm
06:49 46.9 °F /  8.3 °C 38.3 °F /  3.5 °C 30.02in /  1016.5hPa WSW 3.0mph /  4.8km/h 3.0mph /  4.8km/h 72% 0.00in /  0mm
06:54 46.6 °F /  8.1 °C 38.4 °F /  3.6 °C 30.03in /  1016.8hPa WSW 1.0mph /  1.6km/h 4.0mph /  6.4km/h 73% 0.00in /  0mm
06:59 46.9 °F /  8.3 °C 38.3 °F /  3.5 °C 30.03in /  1016.8hPa Calm   5.0mph /  8km/h 72% 0.00in /  0mm
07:04 47.1 °F /  8.4 °C 38.2 °F /  3.4 °C 30.04in /  1017.2hPa WSW 2.0mph /  3.2km/h 5.0mph /  8km/h 71% 0.00in /  0mm
07:09 47.0 °F /  8.3 °C 37.7 °F /  3.2 °C 30.04in /  1017.2hPa WSW 2.0mph /  3.2km/h 5.0mph /  8km/h 70% 0.00in /  0mm
07:14 47.3 °F /  8.5 °C 38.0 °F /  3.3 °C 30.05in /  1017.5hPa WSW 6.0mph /  9.7km/h 6.0mph /  9.7km/h 70% 0.00in /  0mm
07:19 47.5 °F /  8.6 °C 38.2 °F /  3.4 °C 30.05in /  1017.5hPa WSW 3.0mph /  4.8km/h 7.0mph /  11.3km/h 70% 0.00in /  0mm
07:24 47.6 °F /  8.7 °C 38.3 °F /  3.5 °C 30.06in /  1017.8hPa West 1.0mph /  1.6km/h 7.0mph /  11.3km/h 70% 0.00in /  0mm
07:29 47.7 °F /  8.7 °C 38.8 °F /  3.8 °C 30.06in /  1017.8hPa West 2.0mph /  3.2km/h 6.0mph /  9.7km/h 71% 0.00in /  0mm
07:34 47.9 °F /  8.8 °C 38.9 °F /  3.8 °C 30.06in /  1017.8hPa WSW 3.0mph /  4.8km/h 9.0mph /  14.5km/h 71% 0.00in /  0mm
07:39 48.5 °F /  9.2 °C 38.8 °F /  3.8 °C 30.06in /  1017.8hPa WSW 4.0mph /  6.4km/h 9.0mph /  14.5km/h 69% 0.00in /  0mm
07:44 48.9 °F /  9.4 °C 38.4 °F /  3.6 °C 30.06in /  1017.8hPa West 5.0mph /  8km/h 8.0mph /  12.9km/h 67% 0.00in /  0mm
07:49 49.3 °F /  9.6 °C 38.0 °F /  3.3 °C 30.06in /  1017.8hPa WNW 2.0mph /  3.2km/h 10.0mph /  16.1km/h 65% 0.00in /  0mm
07:54 49.6 °F /  9.8 °C 38.3 °F /  3.5 °C 30.06in /  1017.8hPa WNW 5.0mph /  8km/h 10.0mph /  16.1km/h 65% 0.00in /  0mm
07:59 49.8 °F /  9.9 °C 38.1 °F /  3.4 °C 30.07in /  1018.2hPa WNW 5.0mph /  8km/h 10.0mph /  16.1km/h 64% 0.00in /  0mm
08:04 50.0 °F /  10 °C 39.1 °F /  3.9 °C 30.07in /  1018.2hPa SW 4.0mph /  6.4km/h 5.0mph /  8km/h 66% 0.00in /  0mm
08:09 50.2 °F /  10.1 °C 39.7 °F /  4.3 °C 30.07in /  1018.2hPa WSW 4.0mph /  6.4km/h 7.0mph /  11.3km/h 67% 0.00in /  0mm
08:14 50.2 °F /  10.1 °C 39.3 °F /  4.1 °C 30.07in /  1018.2hPa West 2.0mph /  3.2km/h 8.0mph /  12.9km/h 66% 0.00in /  0mm
08:19 50.4 °F /  10.2 °C 39.1 °F /  3.9 °C 30.08in /  1018.5hPa West 5.0mph /  8km/h 12.0mph /  19.3km/h 65% 0.00in /  0mm
08:24 50.3 °F /  10.2 °C 38.6 °F /  3.7 °C 30.08in /  1018.5hPa West 9.0mph /  14.5km/h 13.0mph /  20.9km/h 64% 0.00in /  0mm
08:29 50.5 °F /  10.3 °C 38.4 °F /  3.6 °C 30.08in /  1018.5hPa NW 7.0mph /  11.3km/h 11.0mph /  17.7km/h 63% 0.00in /  0mm
08:34 50.8 °F /  10.4 °C 38.7 °F /  3.7 °C 30.08in /  1018.5hPa WNW 9.0mph /  14.5km/h 11.0mph /  17.7km/h 63% 0.00in /  0mm
08:39 51.1 °F /  10.6 °C 38.9 °F /  3.8 °C 30.08in /  1018.5hPa WNW 5.0mph /  8km/h 11.0mph /  17.7km/h 63% 0.00in /  0mm
08:44 51.2 °F /  10.7 °C 38.6 °F /  3.7 °C 30.08in /  1018.5hPa WNW 6.0mph /  9.7km/h 11.0mph /  17.7km/h 62% 0.00in /  0mm
08:49 51.7 °F /  10.9 °C 39.1 °F /  3.9 °C 30.08in /  1018.5hPa WNW 5.0mph /  8km/h 11.0mph /  17.7km/h 62% 0.00in /  0mm
08:54 52.1 °F /  11.2 °C 39.1 °F /  3.9 °C 30.09in /  1018.8hPa WNW 5.0mph /  8km/h 10.0mph /  16.1km/h 61% 0.00in /  0mm
08:59 52.1 °F /  11.2 °C 39.1 °F /  3.9 °C 30.09in /  1018.8hPa WNW 5.0mph /  8km/h 10.0mph /  16.1km/h 61% 0.00in /  0mm
09:04 52.1 °F /  11.2 °C 39.1 °F /  3.9 °C 30.09in /  1018.8hPa WNW 5.0mph /  8km/h 10.0mph /  16.1km/h 61% 0.00in /  0mm
09:09 52.1 °F /  11.2 °C 39.1 °F /  3.9 °C 30.09in /  1018.8hPa WNW 7.0mph /  11.3km/h 12.0mph /  19.3km/h 61% 0.00in /  0mm
09:14 51.8 °F /  11 °C 38.8 °F /  3.8 °C 30.09in /  1018.8hPa WNW 4.0mph /  6.4km/h 12.0mph /  19.3km/h 61% 0.00in /  0mm
09:19 52.2 °F /  11.2 °C 39.1 °F /  3.9 °C 30.09in /  1018.8hPa NNW 4.0mph /  6.4km/h 12.0mph /  19.3km/h 61% 0.00in /  0mm
09:24 52.2 °F /  11.2 °C 39.1 °F /  3.9 °C 30.09in /  1018.8hPa West 5.0mph /  8km/h 9.0mph /  14.5km/h 61% 0.00in /  0mm
09:29 52.4 °F /  11.3 °C 39.3 °F /  4.1 °C 30.09in /  1018.8hPa NW 7.0mph /  11.3km/h 10.0mph /  16.1km/h 61% 0.00in /  0mm
09:34 52.2 °F /  11.2 °C 38.7 °F /  3.7 °C 30.09in /  1018.8hPa West 3.0mph /  4.8km/h 12.0mph /  19.3km/h 60% 0.00in /  0mm
09:39 52.5 °F /  11.4 °C 39.4 °F /  4.1 °C 30.09in /  1018.8hPa WNW 2.0mph /  3.2km/h 11.0mph /  17.7km/h 61% 0.00in /  0mm
09:44 52.8 °F /  11.6 °C 38.9 °F /  3.8 °C 30.09in /  1018.8hPa WNW 5.0mph /  8km/h 12.0mph /  19.3km/h 59% 0.00in /  0mm
09:49 53.0 °F /  11.7 °C 39.5 °F /  4.2 °C 30.09in /  1018.8hPa WNW 6.0mph /  9.7km/h 12.0mph /  19.3km/h 60% 0.00in /  0mm
09:54 53.2 °F /  11.8 °C 39.2 °F /  4 °C 30.09in /  1018.8hPa WNW 6.0mph /  9.7km/h 12.0mph /  19.3km/h 59% 0.00in /  0mm
09:59 53.7 °F /  12.1 °C 39.3 °F /  4.1 °C 30.10in /  1019.2hPa WNW 5.0mph /  8km/h 11.0mph /  17.7km/h 58% 0.00in /  0mm
10:04 53.6 °F /  12 °C 39.6 °F /  4.2 °C 30.10in /  1019.2hPa NW 5.0mph /  8km/h 9.0mph /  14.5km/h 59% 0.00in /  0mm
10:09 53.8 °F /  12.1 °C 38.9 °F /  3.8 °C 30.10in /  1019.2hPa WNW 8.0mph /  12.9km/h 9.0mph /  14.5km/h 57% 0.00in /  0mm
10:14 53.9 °F /  12.2 °C 39.5 °F /  4.2 °C 30.10in /  1019.2hPa NW 5.0mph /  8km/h 12.0mph /  19.3km/h 58% 0.00in /  0mm
10:19 55.1 °F /  12.8 °C 40.1 °F /  4.5 °C 30.10in /  1019.2hPa WNW 5.0mph /  8km/h 12.0mph /  19.3km/h 57% 0.00in /  0mm
10:24 55.1 °F /  12.8 °C 40.1 °F /  4.5 °C 30.10in /  1019.2hPa WNW 5.0mph /  8km/h 9.0mph /  14.5km/h 57% 0.00in /  0mm
10:29 55.2 °F /  12.9 °C 39.8 °F /  4.3 °C 30.10in /  1019.2hPa West 7.0mph /  11.3km/h 7.0mph /  11.3km/h 56% 0.00in /  0mm
10:34 55.4 °F /  13 °C 40.4 °F /  4.7 °C 30.10in /  1019.2hPa WNW 6.0mph /  9.7km/h 10.0mph /  16.1km/h 57% 0.00in /  0mm
10:39 55.4 °F /  13 °C 41.3 °F /  5.2 °C 30.10in /  1019.2hPa WNW 4.0mph /  6.4km/h 10.0mph /  16.1km/h 59% 0.00in /  0mm
10:44 55.5 °F /  13.1 °C 40.0 °F /  4.4 °C 30.11in /  1019.5hPa NW 5.0mph /  8km/h 10.0mph /  16.1km/h 56% 0.00in /  0mm
10:49 56.2 °F /  13.4 °C 40.7 °F /  4.8 °C 30.11in /  1019.5hPa NNW 6.0mph /  9.7km/h 9.0mph /  14.5km/h 56% 0.00in /  0mm
10:54 56.5 °F /  13.6 °C 41.0 °F /  5 °C 30.11in /  1019.5hPa NW 5.0mph /  8km/h 9.0mph /  14.5km/h 56% 0.00in /  0mm
10:59 56.5 °F /  13.6 °C 39.6 °F /  4.2 °C 30.11in /  1019.5hPa NW 5.0mph /  8km/h 12.0mph /  19.3km/h 53% 0.00in /  0mm
11:04 56.2 °F /  13.4 °C 39.3 °F /  4.1 °C 30.11in /  1019.5hPa West 7.0mph /  11.3km/h 13.0mph /  20.9km/h 53% 0.00in /  0mm
11:09 56.5 °F /  13.6 °C 41.4 °F /  5.2 °C 30.11in /  1019.5hPa WNW 6.0mph /  9.7km/h 13.0mph /  20.9km/h 57% 0.00in /  0mm
11:14 56.3 °F /  13.5 °C 40.3 °F /  4.6 °C 30.11in /  1019.5hPa WNW 6.0mph /  9.7km/h 14.0mph /  22.5km/h 55% 0.00in /  0mm
11:19 57.5 °F /  14.2 °C 41.4 °F /  5.2 °C 30.12in /  1019.9hPa NW 6.0mph /  9.7km/h 14.0mph /  22.5km/h 55% 0.00in /  0mm
11:24 56.8 °F /  13.8 °C 39.8 °F /  4.3 °C 30.12in /  1019.9hPa NW 6.0mph /  9.7km/h 14.0mph /  22.5km/h 53% 0.00in /  0mm
11:29 56.8 °F /  13.8 °C 39.8 °F /  4.3 °C 30.12in /  1019.9hPa North 5.0mph /  8km/h 15.0mph /  24.1km/h 53% 0.00in /  0mm
11:34 56.6 °F /  13.7 °C 40.6 °F /  4.8 °C 30.12in /  1019.9hPa NW 6.0mph /  9.7km/h 15.0mph /  24.1km/h 55% 0.00in /  0mm
11:39 56.6 °F /  13.7 °C 39.7 °F /  4.3 °C 30.12in /  1019.9hPa WNW 8.0mph /  12.9km/h 17.0mph /  27.4km/h 53% 0.00in /  0mm
11:44 56.6 °F /  13.7 °C 40.1 °F /  4.5 °C 30.12in /  1019.9hPa NW 8.0mph /  12.9km/h 17.0mph /  27.4km/h 54% 0.00in /  0mm
11:49 56.9 °F /  13.8 °C 39.4 °F /  4.1 °C 30.12in /  1019.9hPa NW 10.0mph /  16.1km/h 14.0mph /  22.5km/h 52% 0.00in /  0mm
11:54 57.1 °F /  13.9 °C 40.1 °F /  4.5 °C 30.12in /  1019.9hPa WNW 7.0mph /  11.3km/h 12.0mph /  19.3km/h 53% 0.00in /  0mm
11:59 57.2 °F /  14 °C 40.7 °F /  4.8 °C 30.12in /  1019.9hPa NW 7.0mph /  11.3km/h 14.0mph /  22.5km/h 54% 0.00in /  0mm
12:04 57.9 °F /  14.4 °C 41.8 °F /  5.4 °C 30.13in /  1020.2hPa NW 7.0mph /  11.3km/h 14.0mph /  22.5km/h 55% 0.00in /  0mm
12:09 57.7 °F /  14.3 °C 40.2 °F /  4.6 °C 30.13in /  1020.2hPa NNW 6.0mph /  9.7km/h 11.0mph /  17.7km/h 52% 0.00in /  0mm
12:14 57.3 °F /  14.1 °C 41.3 °F /  5.2 °C 30.13in /  1020.2hPa WNW 6.0mph /  9.7km/h 12.0mph /  19.3km/h 55% 0.00in /  0mm
12:19 55.9 °F /  13.3 °C 41.8 °F /  5.4 °C 30.13in /  1020.2hPa SW 6.0mph /  9.7km/h 11.0mph /  17.7km/h 59% 0.00in /  0mm
12:24 56.3 °F /  13.5 °C 42.1 °F /  5.6 °C 30.13in /  1020.2hPa SW 11.0mph /  17.7km/h 11.0mph /  17.7km/h 59% 0.00in /  0mm
12:29 56.1 °F /  13.4 °C 41.5 °F /  5.3 °C 30.13in /  1020.2hPa West 6.0mph /  9.7km/h 12.0mph /  19.3km/h 58% 0.00in /  0mm
12:34 56.1 °F /  13.4 °C 41.1 °F /  5.1 °C 30.13in /  1020.2hPa West 6.0mph /  9.7km/h 12.0mph /  19.3km/h 57% 0.00in /  0mm
12:39 56.3 °F /  13.5 °C 43.0 °F /  6.1 °C 30.13in /  1020.2hPa WSW 5.0mph /  8km/h 9.0mph /  14.5km/h 61% 0.00in /  0mm
12:44 55.9 °F /  13.3 °C 41.3 °F /  5.2 °C 30.13in /  1020.2hPa West 3.0mph /  4.8km/h 14.0mph /  22.5km/h 58% 0.00in /  0mm
12:49 55.7 °F /  13.2 °C 41.6 °F /  5.3 °C 30.13in /  1020.2hPa West 3.0mph /  4.8km/h 10.0mph /  16.1km/h 59% 0.00in /  0mm
12:54 56.0 °F /  13.3 °C 41.4 °F /  5.2 °C 30.13in /  1020.2hPa SW 6.0mph /  9.7km/h 15.0mph /  24.1km/h 58% 0.00in /  0mm
12:59 56.6 °F /  13.7 °C 41.5 °F /  5.3 °C 30.13in /  1020.2hPa WSW 5.0mph /  8km/h 15.0mph /  24.1km/h 57% 0.00in /  0mm
13:04 56.0 °F /  13.3 °C 41.0 °F /  5 °C 30.13in /  1020.2hPa WSW 3.0mph /  4.8km/h 13.0mph /  20.9km/h 57% 0.00in /  0mm
13:09 55.1 °F /  12.8 °C 41.5 °F /  5.3 °C 30.13in /  1020.2hPa WSW 5.0mph /  8km/h 13.0mph /  20.9km/h 60% 0.00in /  0mm
13:14 54.7 °F /  12.6 °C 40.6 °F /  4.8 °C 30.13in /  1020.2hPa WSW 6.0mph /  9.7km/h 12.0mph /  19.3km/h 59% 0.00in /  0mm
13:19 54.6 °F /  12.6 °C 41.8 °F /  5.4 °C 30.13in /  1020.2hPa WSW 9.0mph /  14.5km/h 13.0mph /  20.9km/h 62% 0.00in /  0mm
13:24 54.6 °F /  12.6 °C 41.8 °F /  5.4 °C 30.14in /  1020.5hPa WSW 7.0mph /  11.3km/h 13.0mph /  20.9km/h 62% 0.00in /  0mm
13:29 54.5 °F /  12.5 °C 40.9 °F /  4.9 °C 30.14in /  1020.5hPa WSW 7.0mph /  11.3km/h 14.0mph /  22.5km/h 60% 0.00in /  0mm
13:34 54.5 °F /  12.5 °C 41.7 °F /  5.4 °C 30.14in /  1020.5hPa SW 12.0mph /  19.3km/h 14.0mph /  22.5km/h 62% 0.00in /  0mm
13:39 54.4 °F /  12.4 °C 41.6 °F /  5.3 °C 30.14in /  1020.5hPa SW 11.0mph /  17.7km/h 15.0mph /  24.1km/h 62% 0.00in /  0mm
13:44 54.4 °F /  12.4 °C 41.6 °F /  5.3 °C 30.14in /  1020.5hPa WSW 10.0mph /  16.1km/h 14.0mph /  22.5km/h 62% 0.00in /  0mm
13:49 54.7 °F /  12.6 °C 41.9 °F /  5.5 °C 30.14in /  1020.5hPa WSW 8.0mph /  12.9km/h 14.0mph /  22.5km/h 62% 0.00in /  0mm
13:54 54.3 °F /  12.4 °C 41.6 °F /  5.3 °C 30.13in /  1020.2hPa WSW 8.0mph /  12.9km/h 17.0mph /  27.4km/h 62% 0.00in /  0mm
13:59 54.7 °F /  12.6 °C 41.1 °F /  5.1 °C 30.14in /  1020.5hPa SW 8.0mph /  12.9km/h 17.0mph /  27.4km/h 60% 0.00in /  0mm
14:04 55.4 °F /  13 °C 42.6 °F /  5.9 °C 30.13in /  1020.2hPa SW 9.0mph /  14.5km/h 15.0mph /  24.1km/h 62% 0.00in /  0mm
14:09 55.4 °F /  13 °C 41.3 °F /  5.2 °C 30.14in /  1020.5hPa SW 8.0mph /  12.9km/h 17.0mph /  27.4km/h 59% 0.00in /  0mm
14:14 56.1 °F /  13.4 °C 43.7 °F /  6.5 °C 30.14in /  1020.5hPa WSW 7.0mph /  11.3km/h 17.0mph /  27.4km/h 63% 0.00in /  0mm
14:19 55.7 °F /  13.2 °C 42.0 °F /  5.6 °C 30.13in /  1020.2hPa South 5.0mph /  8km/h 11.0mph /  17.7km/h 60% 0.00in /  0mm
14:24 55.4 °F /  13 °C 42.2 °F /  5.7 °C 30.13in /  1020.2hPa West 12.0mph /  19.3km/h 18.0mph /  29km/h 61% 0.00in /  0mm
14:34 55.2 °F /  12.9 °C 42.4 °F /  5.8 °C 30.13in /  1020.2hPa West 7.0mph /  11.3km/h 15.0mph /  24.1km/h 62% 0.00in /  0mm
14:39 54.7 °F /  12.6 °C 41.5 °F /  5.3 °C 30.14in /  1020.5hPa WSW 7.0mph /  11.3km/h 15.0mph /  24.1km/h 61% 0.00in /  0mm
14:44 54.9 °F /  12.7 °C 41.7 °F /  5.4 °C 30.14in /  1020.5hPa WSW 8.0mph /  12.9km/h 17.0mph /  27.4km/h 61% 0.00in /  0mm
14:49 54.0 °F /  12.2 °C 40.8 °F /  4.9 °C 30.14in /  1020.5hPa WSW 9.0mph /  14.5km/h 18.0mph /  29km/h 61% 0.00in /  0mm
14:54 54.0 °F /  12.2 °C 40.4 °F /  4.7 °C 30.14in /  1020.5hPa SSW 7.0mph /  11.3km/h 16.0mph /  25.7km/h 60% 0.00in /  0mm
14:59 53.7 °F /  12.1 °C 40.6 °F /  4.8 °C 30.14in /  1020.5hPa West 4.0mph /  6.4km/h 14.0mph /  22.5km/h 61% 0.00in /  0mm
15:04 54.8 °F /  12.7 °C 41.6 °F /  5.3 °C 30.14in /  1020.5hPa WSW 8.0mph /  12.9km/h 14.0mph /  22.5km/h 61% 0.00in /  0mm
15:09 55.4 °F /  13 °C 41.7 °F /  5.4 °C 30.13in /  1020.2hPa WSW 8.0mph /  12.9km/h 14.0mph /  22.5km/h 60% 0.00in /  0mm
15:14 55.2 °F /  12.9 °C 41.5 °F /  5.3 °C 30.14in /  1020.5hPa West 6.0mph /  9.7km/h 16.0mph /  25.7km/h 60% 0.00in /  0mm
15:19 55.7 °F /  13.2 °C 42.0 °F /  5.6 °C 30.14in /  1020.5hPa West 11.0mph /  17.7km/h 13.0mph /  20.9km/h 60% 0.00in /  0mm
15:24 55.3 °F /  12.9 °C 41.2 °F /  5.1 °C 30.14in /  1020.5hPa WSW 5.0mph /  8km/h 17.0mph /  27.4km/h 59% 0.00in /  0mm
15:29 54.9 °F /  12.7 °C 41.3 °F /  5.2 °C 30.14in /  1020.5hPa SSW 5.0mph /  8km/h 15.0mph /  24.1km/h 60% 0.00in /  0mm
15:34 55.3 °F /  12.9 °C 41.6 °F /  5.3 °C 30.14in /  1020.5hPa SW 7.0mph /  11.3km/h 13.0mph /  20.9km/h 60% 0.00in /  0mm
15:39 55.6 °F /  13.1 °C 41.9 °F /  5.5 °C 30.14in /  1020.5hPa WSW 15.0mph /  24.1km/h 15.0mph /  24.1km/h 60% 0.00in /  0mm
15:44 55.2 °F /  12.9 °C 41.1 °F /  5.1 °C 30.14in /  1020.5hPa WSW 9.0mph /  14.5km/h 15.0mph /  24.1km/h 59% 0.00in /  0mm
15:49 55.3 °F /  12.9 °C 41.2 °F /  5.1 °C 30.14in /  1020.5hPa WSW 12.0mph /  19.3km/h 14.0mph /  22.5km/h 59% 0.00in /  0mm
15:54 54.7 °F /  12.6 °C 40.6 °F /  4.8 °C 30.14in /  1020.5hPa SW 10.0mph /  16.1km/h 16.0mph /  25.7km/h 59% 0.00in /  0mm
15:59 55.1 °F /  12.8 °C 41.0 °F /  5 °C 30.14in /  1020.5hPa WSW 10.0mph /  16.1km/h 16.0mph /  25.7km/h 59% 0.00in /  0mm
16:04 55.3 °F /  12.9 °C 40.8 °F /  4.9 °C 30.14in /  1020.5hPa WSW 9.0mph /  14.5km/h 15.0mph /  24.1km/h 58% 0.00in /  0mm
16:09 55.3 °F /  12.9 °C 40.8 °F /  4.9 °C 30.14in /  1020.5hPa SW 11.0mph /  17.7km/h 14.0mph /  22.5km/h 58% 0.00in /  0mm
16:14 55.0 °F /  12.8 °C 40.9 °F /  4.9 °C 30.14in /  1020.5hPa WSW 14.0mph /  22.5km/h 19.0mph /  30.6km/h 59% 0.00in /  0mm
16:19 55.5 °F /  13.1 °C 41.4 °F /  5.2 °C 30.14in /  1020.5hPa WSW 9.0mph /  14.5km/h 19.0mph /  30.6km/h 59% 0.00in /  0mm
16:24 55.3 °F /  12.9 °C 40.8 °F /  4.9 °C 30.14in /  1020.5hPa SW 8.0mph /  12.9km/h 16.0mph /  25.7km/h 58% 0.00in /  0mm
16:29 55.4 °F /  13 °C 41.3 °F /  5.2 °C 30.14in /  1020.5hPa West 6.0mph /  9.7km/h 15.0mph /  24.1km/h 59% 0.00in /  0mm
16:34 55.3 °F /  12.9 °C 40.3 °F /  4.6 °C 30.14in /  1020.5hPa SW 11.0mph /  17.7km/h 15.0mph /  24.1km/h 57% 0.00in /  0mm
16:39 54.9 °F /  12.7 °C 40.4 °F /  4.7 °C 30.15in /  1020.9hPa South 5.0mph /  8km/h 18.0mph /  29km/h 58% 0.00in /  0mm
16:44 55.2 °F /  12.9 °C 40.7 °F /  4.8 °C 30.15in /  1020.9hPa WSW 8.0mph /  12.9km/h 18.0mph /  29km/h 58% 0.00in /  0mm
16:49 54.9 °F /  12.7 °C 40.8 °F /  4.9 °C 30.15in /  1020.9hPa SW 12.0mph /  19.3km/h 14.0mph /  22.5km/h 59% 0.00in /  0mm
16:54 54.8 °F /  12.7 °C 40.7 °F /  4.8 °C 30.15in /  1020.9hPa WSW 8.0mph /  12.9km/h 15.0mph /  24.1km/h 59% 0.00in /  0mm
16:59 55.3 °F /  12.9 °C 40.8 °F /  4.9 °C 30.15in /  1020.9hPa WSW 7.0mph /  11.3km/h 12.0mph /  19.3km/h 58% 0.00in /  0mm
17:04 55.4 °F /  13 °C 40.4 °F /  4.7 °C 30.15in /  1020.9hPa SW 7.0mph /  11.3km/h 15.0mph /  24.1km/h 57% 0.00in /  0mm
17:09 54.4 °F /  12.4 °C 40.4 °F /  4.7 °C 30.15in /  1020.9hPa WSW 8.0mph /  12.9km/h 15.0mph /  24.1km/h 59% 0.00in /  0mm
17:14 54.6 °F /  12.6 °C 40.1 °F /  4.5 °C 30.15in /  1020.9hPa WSW 8.0mph /  12.9km/h 15.0mph /  24.1km/h 58% 0.00in /  0mm
17:19 54.6 °F /  12.6 °C 41.0 °F /  5 °C 30.15in /  1020.9hPa WSW 7.0mph /  11.3km/h 14.0mph /  22.5km/h 60% 0.00in /  0mm
17:24 55.1 °F /  12.8 °C 40.6 °F /  4.8 °C 30.15in /  1020.9hPa WSW 6.0mph /  9.7km/h 13.0mph /  20.9km/h 58% 0.00in /  0mm
17:29 54.7 °F /  12.6 °C 40.6 °F /  4.8 °C 30.15in /  1020.9hPa South 4.0mph /  6.4km/h 13.0mph /  20.9km/h 59% 0.00in /  0mm
17:34 54.6 °F /  12.6 °C 40.1 °F /  4.5 °C 30.15in /  1020.9hPa SW 7.0mph /  11.3km/h 13.0mph /  20.9km/h 58% 0.00in /  0mm
17:39 54.8 °F /  12.7 °C 41.2 °F /  5.1 °C 30.16in /  1021.2hPa West 8.0mph /  12.9km/h 10.0mph /  16.1km/h 60% 0.00in /  0mm
17:44 54.6 °F /  12.6 °C 40.6 °F /  4.8 °C 30.15in /  1020.9hPa SSW 3.0mph /  4.8km/h 12.0mph /  19.3km/h 59% 0.00in /  0mm
17:54 53.7 °F /  12.1 °C 40.1 °F /  4.5 °C 30.16in /  1021.2hPa West 6.0mph /  9.7km/h 16.0mph /  25.7km/h 60% 0.00in /  0mm
17:59 53.6 °F /  12 °C 40.5 °F /  4.7 °C 30.16in /  1021.2hPa SW 7.0mph /  11.3km/h 12.0mph /  19.3km/h 61% 0.00in /  0mm
18:04 53.5 °F /  11.9 °C 41.2 °F /  5.1 °C 30.16in /  1021.2hPa SW 7.0mph /  11.3km/h 14.0mph /  22.5km/h 63% 0.00in /  0mm
18:09 53.5 °F /  11.9 °C 40.8 °F /  4.9 °C 30.16in /  1021.2hPa SW 6.0mph /  9.7km/h 14.0mph /  22.5km/h 62% 0.00in /  0mm
18:14 53.2 °F /  11.8 °C 40.9 °F /  4.9 °C 30.16in /  1021.2hPa WNW 5.0mph /  8km/h 12.0mph /  19.3km/h 63% 0.00in /  0mm
18:19 52.6 °F /  11.4 °C 40.8 °F /  4.9 °C 30.16in /  1021.2hPa WSW 8.0mph /  12.9km/h 12.0mph /  19.3km/h 64% 0.00in /  0mm
18:24 52.7 °F /  11.5 °C 40.9 °F /  4.9 °C 30.16in /  1021.2hPa WSW 5.0mph /  8km/h 11.0mph /  17.7km/h 64% 0.00in /  0mm
18:29 52.6 °F /  11.4 °C 41.2 °F /  5.1 °C 30.16in /  1021.2hPa SW 6.0mph /  9.7km/h 11.0mph /  17.7km/h 65% 0.00in /  0mm
18:34 52.4 °F /  11.3 °C 41.0 °F /  5 °C 30.16in /  1021.2hPa SW 6.0mph /  9.7km/h 11.0mph /  17.7km/h 65% 0.00in /  0mm
18:39 52.1 °F /  11.2 °C 40.7 °F /  4.8 °C 30.17in /  1021.6hPa SW 6.0mph /  9.7km/h 11.0mph /  17.7km/h 65% 0.00in /  0mm
18:44 51.8 °F /  11 °C 40.8 °F /  4.9 °C 30.17in /  1021.6hPa SW 6.0mph /  9.7km/h 11.0mph /  17.7km/h 66% 0.00in /  0mm
18:49 51.7 °F /  10.9 °C 40.7 °F /  4.8 °C 30.17in /  1021.6hPa SW 6.0mph /  9.7km/h 10.0mph /  16.1km/h 66% 0.00in /  0mm
18:54 51.6 °F /  10.9 °C 40.6 °F /  4.8 °C 30.17in /  1021.6hPa SW 6.0mph /  9.7km/h 10.0mph /  16.1km/h 66% 0.00in /  0mm
18:59 51.7 °F /  10.9 °C 40.7 °F /  4.8 °C 30.17in /  1021.6hPa WSW 4.0mph /  6.4km/h 9.0mph /  14.5km/h 66% 0.00in /  0mm
19:04 51.6 °F /  10.9 °C 41.0 °F /  5 °C 30.17in /  1021.6hPa WSW 6.0mph /  9.7km/h 10.0mph /  16.1km/h 67% 0.00in /  0mm
19:09 51.2 °F /  10.7 °C 40.6 °F /  4.8 °C 30.18in /  1021.9hPa West 3.0mph /  4.8km/h 10.0mph /  16.1km/h 67% 0.00in /  0mm
19:14 51.0 °F /  10.6 °C 40.8 °F /  4.9 °C 30.18in /  1021.9hPa WSW 5.0mph /  8km/h 7.0mph /  11.3km/h 68% 0.00in /  0mm
19:19 51.0 °F /  10.6 °C 40.8 °F /  4.9 °C 30.18in /  1021.9hPa West 2.0mph /  3.2km/h 6.0mph /  9.7km/h 68% 0.00in /  0mm
19:24 50.8 °F /  10.4 °C 40.6 °F /  4.8 °C 30.18in /  1021.9hPa SW 2.0mph /  3.2km/h 3.0mph /  4.8km/h 68% 0.00in /  0mm
19:29 50.7 °F /  10.4 °C 40.5 °F /  4.7 °C 30.18in /  1021.9hPa SW 1.0mph /  1.6km/h 3.0mph /  4.8km/h 68% 0.00in /  0mm
19:34 50.6 °F /  10.3 °C 40.8 °F /  4.9 °C 30.18in /  1021.9hPa SW 1.0mph /  1.6km/h 4.0mph /  6.4km/h 69% 0.00in /  0mm
19:39 50.7 °F /  10.4 °C 40.9 °F /  4.9 °C 30.18in /  1021.9hPa SW 1.0mph /  1.6km/h 4.0mph /  6.4km/h 69% 0.00in /  0mm
19:44 50.6 °F /  10.3 °C 40.8 °F /  4.9 °C 30.18in /  1021.9hPa Calm   3.0mph /  4.8km/h 69% 0.00in /  0mm
19:49 50.5 °F /  10.3 °C 40.7 °F /  4.8 °C 30.19in /  1022.2hPa SW 1.0mph /  1.6km/h 3.0mph /  4.8km/h 69% 0.00in /  0mm
19:59 50.0 °F /  10 °C 40.6 °F /  4.8 °C 30.19in /  1022.2hPa SW 1.0mph /  1.6km/h 3.0mph /  4.8km/h 70% 0.00in /  0mm
20:04 49.6 °F /  9.8 °C 40.6 °F /  4.8 °C 30.19in /  1022.2hPa SSW 1.0mph /  1.6km/h 3.0mph /  4.8km/h 71% 0.00in /  0mm
20:09 49.5 °F /  9.7 °C 40.1 °F /  4.5 °C 30.19in /  1022.2hPa North 2.0mph /  3.2km/h 6.0mph /  9.7km/h 70% 0.00in /  0mm
20:14 49.7 °F /  9.8 °C 38.8 °F /  3.8 °C 30.19in /  1022.2hPa North 2.0mph /  3.2km/h 5.0mph /  8km/h 66% 0.00in /  0mm
20:19 49.7 °F /  9.8 °C 38.8 °F /  3.8 °C 30.20in /  1022.6hPa North 3.0mph /  4.8km/h 4.0mph /  6.4km/h 66% 0.00in /  0mm
20:24 49.6 °F /  9.8 °C 38.7 °F /  3.7 °C 30.20in /  1022.6hPa North 3.0mph /  4.8km/h 7.0mph /  11.3km/h 66% 0.00in /  0mm
20:29 49.3 °F /  9.6 °C 38.0 °F /  3.3 °C 30.20in /  1022.6hPa North 3.0mph /  4.8km/h 7.0mph /  11.3km/h 65% 0.00in /  0mm
20:34 49.0 °F /  9.4 °C 37.7 °F /  3.2 °C 30.21in /  1022.9hPa NNE 4.0mph /  6.4km/h 6.0mph /  9.7km/h 65% 0.00in /  0mm
20:39 48.7 °F /  9.3 °C 37.8 °F /  3.2 °C 30.21in /  1022.9hPa NNE 4.0mph /  6.4km/h 5.0mph /  8km/h 66% 0.00in /  0mm
20:44 48.2 °F /  9 °C 37.0 °F /  2.8 °C 30.22in /  1023.2hPa NNE 3.0mph /  4.8km/h 7.0mph /  11.3km/h 65% 0.00in /  0mm
20:49 47.8 °F /  8.8 °C 36.6 °F /  2.6 °C 30.22in /  1023.2hPa NNE 4.0mph /  6.4km/h 7.0mph /  11.3km/h 65% 0.00in /  0mm
20:54 47.5 °F /  8.6 °C 36.3 °F /  2.4 °C 30.23in /  1023.6hPa NNE 4.0mph /  6.4km/h 7.0mph /  11.3km/h 65% 0.00in /  0mm
20:59 47.2 °F /  8.4 °C 36.0 °F /  2.2 °C 30.23in /  1023.6hPa NNE 4.0mph /  6.4km/h 8.0mph /  12.9km/h 65% 0.00in /  0mm
21:04 46.9 °F /  8.3 °C 35.7 °F /  2.1 °C 30.23in /  1023.6hPa NNE 4.0mph /  6.4km/h 8.0mph /  12.9km/h 65% 0.00in /  0mm
21:09 46.6 °F /  8.1 °C 35.5 °F /  1.9 °C 30.24in /  1023.9hPa NNE 3.0mph /  4.8km/h 5.0mph /  8km/h 65% 0.00in /  0mm
21:14 46.3 °F /  7.9 °C 35.2 °F /  1.8 °C 30.24in /  1023.9hPa NNW 3.0mph /  4.8km/h 7.0mph /  11.3km/h 65% 0.00in /  0mm
21:19 46.0 °F /  7.8 °C 34.9 °F /  1.6 °C 30.24in /  1023.9hPa North 4.0mph /  6.4km/h 8.0mph /  12.9km/h 65% 0.00in /  0mm
21:24 45.6 °F /  7.6 °C 34.5 °F /  1.4 °C 30.25in /  1024.3hPa North 5.0mph /  8km/h 9.0mph /  14.5km/h 65% 0.00in /  0mm
21:29 45.3 °F /  7.4 °C 34.2 °F /  1.2 °C 30.25in /  1024.3hPa NNW 3.0mph /  4.8km/h 8.0mph /  12.9km/h 65% 0.00in /  0mm
21:34 44.8 °F /  7.1 °C 33.7 °F /  0.9 °C 30.25in /  1024.3hPa NNE 4.0mph /  6.4km/h 7.0mph /  11.3km/h 65% 0.00in /  0mm
21:39 44.6 °F /  7 °C 33.6 °F /  0.9 °C 30.26in /  1024.6hPa NNE 4.0mph /  6.4km/h 7.0mph /  11.3km/h 65% 0.00in /  0mm
21:44 44.2 °F /  6.8 °C 33.6 °F /  0.9 °C 30.25in /  1024.3hPa NNE 5.0mph /  8km/h 7.0mph /  11.3km/h 66% 0.00in /  0mm
21:49 44.0 °F /  6.7 °C 33.4 °F /  0.8 °C 30.26in /  1024.6hPa NNE 4.0mph /  6.4km/h 7.0mph /  11.3km/h 66% 0.00in /  0mm
21:54 43.9 °F /  6.6 °C 33.6 °F /  0.9 °C 30.26in /  1024.6hPa NNE 3.0mph /  4.8km/h 6.0mph /  9.7km/h 67% 0.00in /  0mm
21:59 43.7 °F /  6.5 °C 33.5 °F /  0.8 °C 30.26in /  1024.6hPa NNE 3.0mph /  4.8km/h 8.0mph /  12.9km/h 67% 0.00in /  0mm
22:04 43.4 °F /  6.3 °C 33.2 °F /  0.7 °C 30.27in /  1024.9hPa North 3.0mph /  4.8km/h 10.0mph /  16.1km/h 67% 0.00in /  0mm
22:09 43.3 °F /  6.3 °C 33.1 °F /  0.6 °C 30.27in /  1024.9hPa NNE 4.0mph /  6.4km/h 10.0mph /  16.1km/h 67% 0.00in /  0mm
22:14 43.0 °F /  6.1 °C 32.8 °F /  0.4 °C 30.27in /  1024.9hPa NNE 4.0mph /  6.4km/h 8.0mph /  12.9km/h 67% 0.00in /  0mm
22:19 42.8 °F /  6 °C 32.6 °F /  0.3 °C 30.27in /  1024.9hPa NNE 4.0mph /  6.4km/h 10.0mph /  16.1km/h 67% 0.00in /  0mm
22:24 42.6 °F /  5.9 °C 32.4 °F /  0.2 °C 30.27in /  1024.9hPa NNE 4.0mph /  6.4km/h 10.0mph /  16.1km/h 67% 0.00in /  0mm
22:29 42.4 °F /  5.8 °C 32.2 °F /  0.1 °C 30.27in /  1024.9hPa NNE 2.0mph /  3.2km/h 9.0mph /  14.5km/h 67% 0.00in /  0mm
22:34 42.2 °F /  5.7 °C 32.4 °F /  0.2 °C 30.28in /  1025.3hPa NNE 3.0mph /  4.8km/h 7.0mph /  11.3km/h 68% 0.00in /  0mm
22:39 42.0 °F /  5.6 °C 32.2 °F /  0.1 °C 30.27in /  1024.9hPa NNE 3.0mph /  4.8km/h 7.0mph /  11.3km/h 68% 0.00in /  0mm
22:44 41.8 °F /  5.4 °C 32.4 °F /  0.2 °C 30.27in /  1024.9hPa NE 2.0mph /  3.2km/h 6.0mph /  9.7km/h 69% 0.00in /  0mm
22:49 41.6 °F /  5.3 °C 32.2 °F /  0.1 °C 30.27in /  1024.9hPa NNE 3.0mph /  4.8km/h 6.0mph /  9.7km/h 69% 0.00in /  0mm
22:54 41.6 °F /  5.3 °C 32.2 °F /  0.1 °C 30.28in /  1025.3hPa NNE 2.0mph /  3.2km/h 6.0mph /  9.7km/h 69% 0.00in /  0mm
22:59 41.5 °F /  5.3 °C 32.1 °F /  0.1 °C 30.27in /  1024.9hPa NNE 3.0mph /  4.8km/h 7.0mph /  11.3km/h 69% 0.00in /  0mm
23:04 41.5 °F /  5.3 °C 32.1 °F /  0.1 °C 30.28in /  1025.3hPa NNE 3.0mph /  4.8km/h 7.0mph /  11.3km/h 69% 0.00in /  0mm
23:09 41.3 °F /  5.2 °C 32.2 °F /  0.1 °C 30.28in /  1025.3hPa North 3.0mph /  4.8km/h 6.0mph /  9.7km/h 70% 0.00in /  0mm
23:14 41.1 °F /  5.1 °C 32.1 °F /  0.1 °C 30.28in /  1025.3hPa NNE 3.0mph /  4.8km/h 6.0mph /  9.7km/h 70% 0.00in /  0mm
23:19 40.9 °F /  4.9 °C 32.2 °F /  0.1 °C 30.28in /  1025.3hPa NNE 3.0mph /  4.8km/h 6.0mph /  9.7km/h 71% 0.00in /  0mm
23:24 40.6 °F /  4.8 °C 32.3 °F /  0.2 °C 30.28in /  1025.3hPa NNE 2.0mph /  3.2km/h 5.0mph /  8km/h 72% 0.00in /  0mm
23:29 40.5 °F /  4.7 °C 32.2 °F /  0.1 °C 30.28in /  1025.3hPa Calm   4.0mph /  6.4km/h 72% 0.00in /  0mm
23:34 40.3 °F /  4.6 °C 32.0 °F /  0 °C 30.28in /  1025.3hPa North 2.0mph /  3.2km/h 5.0mph /  8km/h 72% 0.00in /  0mm
23:39 40.2 °F /  4.6 °C 32.2 °F /  0.1 °C 30.29in /  1025.6hPa North 2.0mph /  3.2km/h 5.0mph /  8km/h 73% 0.00in /  0mm
23:44 40.1 °F /  4.5 °C 32.1 °F /  0.1 °C 30.29in /  1025.6hPa North 2.0mph /  3.2km/h 5.0mph /  8km/h 73% 0.00in /  0mm
23:49 40.0 °F /  4.4 °C 32.0 °F /  0 °C 30.29in /  1025.6hPa North 3.0mph /  4.8km/h 5.0mph /  8km/h 73% 0.00in /  0mm
23:54 40.0 °F /  4.4 °C 32.0 °F /  0 °C 30.29in /  1025.6hPa NNE 3.0mph /  4.8km/h 7.0mph /  11.3km/h 73% 0.00in /  0mm
23:59 39.9 °F /  4.4 °C 32.3 °F /  0.2 °C 30.29in /  1025.6hPa NNE 5.0mph /  8km/h 7.0mph /  11.3km/h 74% 0.00in /  0mm
Buffalo, New York, USA
Compliments of Weather Underground - 2.5 mb